Alpena, Michigan
Current Conditions -  °F | °C
As of 2:36 AM on Thursday 23 Oct 2014 (Local Time) from KAPN Reporting Station
Haze Haze  
Wind Chill: 27°   Ceiling: 100
Heat Index: 27°   Visibility: 1.5mi
Dew Point: 25°   Wind: 0mph
Humidity: 92%   Direction: NA
Pressure: 30.29"   Gusts: NA
Location:  45.06°N, 83.44°W
Report Text: KAPN 230636Z AUTO 00000KT 1 1/2SM BR BKN001 M03/M04 A3029 RMK AO2 VIS 1/2V5 I1000 T10281039
Loading
Personal Weather Stations






























Interactive Weather Map New forecast layout! Learn more

10-Day Weather Forecast

Advertisements
Track Severe Weather on mobile